Time;durP1;ratioP1;P1;durP2;ratioP2;P2;SDS_P1;SDS_P2;PMS_P1;PMS_P2;Temp;Humidity;BMP_temperature;BMP_pressure;BME280_temperature;BME280_humidity;BME280_pressure;Samples;Min_cycle;Max_cycle;Signal;HPM_P1;HPM_P2
2023/10/03 00:00:22;;;;;;;17.97;11.17;;;;;;;;;;4893318;29;20595;-77
2023/10/03 00:02:51;;;;;;;18.23;10.73;;;;;;;;;;4896875;29;20190;-77
2023/10/03 00:05:21;;;;;;;20.83;11.07;;;;;;;;;;4894151;29;20183;-77
2023/10/03 00:07:47;;;;;;;21.47;12.10;;;;;;;;;;4896054;29;20183;-77
2023/10/03 00:10:14;;;;;;;19.40;11.53;;;;;;;;;;4891587;29;20619;-77
2023/10/03 00:12:40;;;;;;;19.43;10.97;;;;;;;;;;4894197;29;20192;-77
2023/10/03 00:15:08;;;;;;;22.03;11.93;;;;;;;;;;4896337;29;20250;-77
2023/10/03 00:17:35;;;;;;;20.53;11.93;;;;;;;;;;4898826;29;20194;-77
2023/10/03 00:20:04;;;;;;;18.53;11.23;;;;;;;;;;4894867;29;20696;-77
2023/10/03 00:22:30;;;;;;;22.20;12.60;;;;;;;;;;4895595;29;20274;-77
2023/10/03 00:24:56;;;;;;;21.10;12.53;;;;;;;;;;4896469;29;20224;-77
2023/10/03 00:27:23;;;;;;;18.90;11.23;;;;;;;;;;4893358;29;20183;-77
2023/10/03 00:29:51;;;;;;;17.07;10.93;;;;;;;;;;4895120;29;20282;-77
2023/10/03 00:32:17;;;;;;;19.33;11.73;;;;;;;;;;4892600;29;20179;-77
2023/10/03 00:34:45;;;;;;;22.13;11.73;;;;;;;;;;4892167;29;20533;-77
2023/10/03 00:37:12;;;;;;;19.80;11.00;;;;;;;;;;4892784;29;20207;-77
2023/10/03 00:39:38;;;;;;;19.13;11.40;;;;;;;;;;4891994;29;20222;-77
2023/10/03 00:42:05;;;;;;;21.30;11.40;;;;;;;;;;4890872;29;20684;-77
2023/10/03 00:44:31;;;;;;;18.27;11.00;;;;;;;;;;4892588;29;20289;-77
2023/10/03 00:46:58;;;;;;;20.13;11.33;;;;;;;;;;4893041;29;20354;-77
2023/10/03 00:49:24;;;;;;;22.00;12.47;;;;;;;;;;4891718;29;21620;-77
2023/10/03 00:51:51;;;;;;;20.77;12.10;;;;;;;;;;4895338;29;20663;-77
2023/10/03 00:54:17;;;;;;;22.00;12.00;;;;;;;;;;4902308;29;20187;-77
2023/10/03 00:56:45;;;;;;;19.47;11.73;;;;;;;;;;4895321;29;20194;-77
2023/10/03 00:59:13;;;;;;;19.00;11.60;;;;;;;;;;4899846;29;20222;-77
2023/10/03 01:01:40;;;;;;;20.87;11.63;;;;;;;;;;4889281;29;20747;-77
2023/10/03 01:04:17;;;;;;;22.83;11.67;;;;;;;;;;4894125;29;20246;-77
2023/10/03 01:06:43;;;;;;;22.30;12.47;;;;;;;;;;4890621;29;20188;-77
2023/10/03 01:09:17;;;;;;;25.10;12.17;;;;;;;;;;4894039;29;20447;-77
2023/10/03 01:11:43;;;;;;;22.67;12.70;;;;;;;;;;4892654;29;20200;-77
2023/10/03 01:14:09;;;;;;;20.07;12.17;;;;;;;;;;4896869;29;20222;-77
2023/10/03 01:16:36;;;;;;;23.40;12.30;;;;;;;;;;4891382;29;20682;-77
2023/10/03 01:19:25;;;;;;;22.97;12.07;;;;;;;;;;4895704;29;20647;-77
2023/10/03 01:21:52;;;;;;;22.77;12.43;;;;;;;;;;4889839;29;20212;-77
2023/10/03 01:24:24;;;;;;;18.73;11.17;;;;;;;;;;4894759;29;20193;-77
2023/10/03 01:26:52;;;;;;;20.27;11.77;;;;;;;;;;4891314;29;20210;-77
2023/10/03 01:29:19;;;;;;;20.33;12.00;;;;;;;;;;4893081;29;20774;-77
2023/10/03 01:31:47;;;;;;;22.43;12.57;;;;;;;;;;4910595;29;20570;-77
2023/10/03 01:34:15;;;;;;;24.20;13.63;;;;;;;;;;4895512;29;20191;-77
2023/10/03 01:36:41;;;;;;;24.03;13.80;;;;;;;;;;4892552;29;20264;-77
2023/10/03 01:39:11;;;;;;;26.50;13.37;;;;;;;;;;4893674;29;20211;-77
2023/10/03 01:41:37;;;;;;;22.07;12.63;;;;;;;;;;4897413;29;20211;-77
2023/10/03 01:44:03;;;;;;;24.53;13.20;;;;;;;;;;4892801;29;20331;-77
2023/10/03 01:46:29;;;;;;;24.83;13.37;;;;;;;;;;4894616;29;20186;-77
2023/10/03 01:48:57;;;;;;;22.37;11.53;;;;;;;;;;4891167;29;20194;-77
2023/10/03 01:51:23;;;;;;;24.00;12.80;;;;;;;;;;4899816;29;20671;-77
2023/10/03 01:53:50;;;;;;;19.20;11.03;;;;;;;;;;4904553;29;20219;-78
2023/10/03 01:56:16;;;;;;;25.30;13.33;;;;;;;;;;4896214;29;20203;-78
2023/10/03 01:58:43;;;;;;;21.87;12.87;;;;;;;;;;4882186;29;20602;-78
2023/10/03 02:01:11;;;;;;;22.60;13.27;;;;;;;;;;4886976;29;20301;-78
2023/10/03 02:03:37;;;;;;;22.63;12.60;;;;;;;;;;4893844;29;20240;-78
2023/10/03 02:06:06;;;;;;;20.97;12.43;;;;;;;;;;4884666;29;20198;-78
2023/10/03 02:08:33;;;;;;;23.10;12.37;;;;;;;;;;4893260;29;20636;-78
2023/10/03 02:10:59;;;;;;;23.57;13.17;;;;;;;;;;4895307;29;20687;-78
2023/10/03 02:13:25;;;;;;;21.90;11.97;;;;;;;;;;4902553;29;20281;-78
2023/10/03 02:15:54;;;;;;;22.87;13.00;;;;;;;;;;4892069;29;20674;-78
2023/10/03 02:18:21;;;;;;;24.07;12.93;;;;;;;;;;4893689;29;20658;-78
2023/10/03 02:21:03;;;;;;;21.27;12.63;;;;;;;;;;4894449;29;20211;-78
2023/10/03 02:23:32;;;;;;;22.20;13.27;;;;;;;;;;4898370;29;20183;-78
2023/10/03 02:26:06;;;;;;;27.77;13.93;;;;;;;;;;4891413;29;20195;-78
2023/10/03 02:28:32;;;;;;;25.20;14.00;;;;;;;;;;4909802;29;20190;-79
2023/10/03 02:31:01;;;;;;;26.97;14.03;;;;;;;;;;4901426;29;20225;-78
2023/10/03 02:33:28;;;;;;;25.90;14.07;;;;;;;;;;4893678;29;20199;-78
2023/10/03 02:35:55;;;;;;;30.67;16.07;;;;;;;;;;4893485;29;20183;-78
2023/10/03 02:38:25;;;;;;;27.40;15.13;;;;;;;;;;4894506;29;20268;-78
2023/10/03 02:40:59;;;;;;;27.13;14.63;;;;;;;;;;4881505;29;20666;-78
2023/10/03 02:43:30;;;;;;;31.23;15.93;;;;;;;;;;4879940;29;20234;-78
2023/10/03 02:45:56;;;;;;;29.03;14.87;;;;;;;;;;4899482;29;20188;-78
2023/10/03 02:48:24;;;;;;;26.07;15.23;;;;;;;;;;4897100;29;20195;-78
2023/10/03 02:50:51;;;;;;;28.07;14.97;;;;;;;;;;4901569;29;20211;-78
2023/10/03 02:53:21;;;;;;;28.17;15.20;;;;;;;;;;4908037;29;20198;-79
2023/10/03 02:55:49;;;;;;;28.67;15.60;;;;;;;;;;4907895;29;20193;-79
2023/10/03 02:58:16;;;;;;;28.77;15.03;;;;;;;;;;4890571;29;20318;-78
2023/10/03 03:00:46;;;;;;;28.13;14.83;;;;;;;;;;4905482;29;20215;-78
2023/10/03 03:03:14;;;;;;;26.77;14.47;;;;;;;;;;4890952;29;20194;-79
2023/10/03 03:05:42;;;;;;;29.33;15.10;;;;;;;;;;4885686;29;20656;-78
2023/10/03 03:08:23;;;;;;;23.60;13.93;;;;;;;;;;4891692;29;20555;-79
2023/10/03 03:10:55;;;;;;;25.77;14.63;;;;;;;;;;4894046;29;20203;-78
2023/10/03 03:13:23;;;;;;;24.73;14.43;;;;;;;;;;4907817;29;20610;-78
2023/10/03 03:15:53;;;;;;;26.63;14.57;;;;;;;;;;4908667;29;20245;-79
2023/10/03 03:18:20;;;;;;;24.60;13.60;;;;;;;;;;4903754;29;20687;-78
2023/10/03 03:20:50;;;;;;;24.33;14.03;;;;;;;;;;4894713;29;20202;-79
2023/10/03 03:23:18;;;;;;;26.83;14.77;;;;;;;;;;4894921;29;20613;-78
2023/10/03 03:25:49;;;;;;;25.57;14.40;;;;;;;;;;4893775;29;20187;-79
2023/10/03 03:28:15;;;;;;;25.23;14.27;;;;;;;;;;4894120;29;20206;-78
2023/10/03 03:30:45;;;;;;;26.73;13.83;;;;;;;;;;4893563;29;20207;-79
2023/10/03 03:33:19;;;;;;;24.43;13.93;;;;;;;;;;4896095;29;20187;-79
2023/10/03 03:35:46;;;;;;;26.97;14.37;;;;;;;;;;4897877;29;20213;-79
2023/10/03 03:38:18;;;;;;;23.87;13.17;;;;;;;;;;4905031;29;20677;-78
2023/10/03 03:40:47;;;;;;;24.00;13.97;;;;;;;;;;4894858;29;20218;-79
2023/10/03 03:43:18;;;;;;;25.70;14.47;;;;;;;;;;4898123;29;20230;-79
2023/10/03 03:45:45;;;;;;;22.70;13.23;;;;;;;;;;4895470;29;20184;-79
2023/10/03 03:48:11;;;;;;;24.10;14.03;;;;;;;;;;4896693;29;20187;-78
2023/10/03 03:50:38;;;;;;;22.67;12.40;;;;;;;;;;4896123;29;20718;-79
2023/10/03 03:53:04;;;;;;;23.87;13.53;;;;;;;;;;4898242;29;20677;-78
2023/10/03 03:55:31;;;;;;;23.27;13.90;;;;;;;;;;4899651;29;20192;-80
2023/10/03 03:57:59;;;;;;;27.13;13.70;;;;;;;;;;4894385;29;20183;-79
2023/10/03 04:00:31;;;;;;;22.73;13.47;;;;;;;;;;4895721;29;20241;-79
2023/10/03 04:02:57;;;;;;;24.20;13.97;;;;;;;;;;4897164;29;20192;-78
2023/10/03 04:05:25;;;;;;;22.07;14.00;;;;;;;;;;4901711;29;20191;-79
2023/10/03 04:07:51;;;;;;;22.37;12.80;;;;;;;;;;4903165;29;20197;-78
2023/10/03 04:10:18;;;;;;;24.43;13.60;;;;;;;;;;4907503;29;20222;-79
2023/10/03 04:12:44;;;;;;;22.90;13.47;;;;;;;;;;4885135;29;20238;-78
2023/10/03 04:15:12;;;;;;;20.17;12.97;;;;;;;;;;4905664;29;20191;-79
2023/10/03 04:17:40;;;;;;;22.03;13.00;;;;;;;;;;4897826;29;20197;-79
2023/10/03 04:20:14;;;;;;;20.23;12.17;;;;;;;;;;4894142;29;20325;-78
2023/10/03 04:22:41;;;;;;;22.27;13.00;;;;;;;;;;4898999;29;20187;-79
2023/10/03 04:25:13;;;;;;;21.80;12.93;;;;;;;;;;4903013;29;20191;-79
2023/10/03 04:27:39;;;;;;;23.73;12.70;;;;;;;;;;4902748;29;20631;-78
2023/10/03 04:30:09;;;;;;;19.10;11.77;;;;;;;;;;4902662;29;20207;-79
2023/10/03 04:32:35;;;;;;;21.80;12.63;;;;;;;;;;4901865;29;20191;-79
2023/10/03 04:35:06;;;;;;;19.33;12.23;;;;;;;;;;4898587;29;20668;-78
2023/10/03 04:37:32;;;;;;;20.20;11.53;;;;;;;;;;4897831;29;20283;-79
2023/10/03 04:39:58;;;;;;;19.97;12.07;;;;;;;;;;4901928;29;20215;-79
2023/10/03 04:42:24;;;;;;;21.57;11.67;;;;;;;;;;4902664;29;20199;-79
2023/10/03 04:44:50;;;;;;;17.97;11.70;;;;;;;;;;4894814;29;20190;-78
2023/10/03 04:47:16;;;;;;;18.83;11.83;;;;;;;;;;4895539;29;20187;-78
2023/10/03 04:49:42;;;;;;;19.60;11.63;;;;;;;;;;4897282;29;20217;-78
2023/10/03 04:52:08;;;;;;;21.00;11.57;;;;;;;;;;4895714;29;20194;-79
2023/10/03 04:54:34;;;;;;;19.63;11.40;;;;;;;;;;4904270;29;20194;-79
2023/10/03 04:57:00;;;;;;;20.27;11.63;;;;;;;;;;4892346;29;20195;-79
2023/10/03 04:59:27;;;;;;;20.00;11.90;;;;;;;;;;4889872;29;20219;-78
2023/10/03 05:01:53;;;;;;;18.27;11.50;;;;;;;;;;4893228;29;20686;-79
2023/10/03 05:04:19;;;;;;;17.37;10.60;;;;;;;;;;4893115;29;20274;-79
2023/10/03 05:06:47;;;;;;;19.50;11.37;;;;;;;;;;4894034;29;20183;-78
2023/10/03 05:09:13;;;;;;;20.70;11.93;;;;;;;;;;4893614;29;20567;-79
2023/10/03 05:11:41;;;;;;;18.87;11.00;;;;;;;;;;4893861;29;20183;-79
2023/10/03 05:14:08;;;;;;;24.17;11.83;;;;;;;;;;4893432;29;20627;-79
2023/10/03 05:16:35;;;;;;;17.40;11.27;;;;;;;;;;4890854;29;20618;-79
2023/10/03 05:19:01;;;;;;;17.97;11.03;;;;;;;;;;4893113;29;20483;-79
2023/10/03 05:21:27;;;;;;;22.73;12.00;;;;;;;;;;4893263;29;20183;-78
2023/10/03 05:23:54;;;;;;;18.37;11.27;;;;;;;;;;4892231;29;20266;-78
2023/10/03 05:26:21;;;;;;;15.50;10.37;;;;;;;;;;4891742;29;20191;-79
2023/10/03 05:28:47;;;;;;;19.17;11.07;;;;;;;;;;4892272;29;20189;-79
2023/10/03 05:31:15;;;;;;;17.03;10.40;;;;;;;;;;4892912;29;20207;-79
2023/10/03 05:33:42;;;;;;;16.93;10.40;;;;;;;;;;4890748;29;20195;-79
2023/10/03 05:36:14;;;;;;;17.50;10.37;;;;;;;;;;4892827;29;20247;-79
2023/10/03 05:38:42;;;;;;;20.53;11.30;;;;;;;;;;4894004;29;20703;-79
2023/10/03 05:41:17;;;;;;;17.40;10.60;;;;;;;;;;4894920;29;20237;-79
2023/10/03 05:43:43;;;;;;;14.90;9.47;;;;;;;;;;4890977;29;20191;-79
2023/10/03 05:46:11;;;;;;;16.13;9.60;;;;;;;;;;4896948;29;20242;-79
2023/10/03 05:48:37;;;;;;;14.43;9.67;;;;;;;;;;4879850;29;20195;-79
2023/10/03 05:51:03;;;;;;;17.07;10.03;;;;;;;;;;4902271;29;20646;-79
2023/10/03 05:53:30;;;;;;;16.40;10.47;;;;;;;;;;4894090;29;20562;-79
2023/10/03 05:56:04;;;;;;;17.60;10.53;;;;;;;;;;5054212;28;20584;-77
2023/10/03 05:58:32;;;;;;;16.00;10.03;;;;;;;;;;5045612;28;20237;-77
2023/10/03 06:00:59;;;;;;;16.03;9.90;;;;;;;;;;5035156;28;20671;-77
2023/10/03 06:03:25;;;;;;;15.97;9.70;;;;;;;;;;5036630;28;20241;-77
2023/10/03 06:05:51;;;;;;;17.27;10.13;;;;;;;;;;5038884;28;20174;-78
2023/10/03 06:08:18;;;;;;;15.87;9.40;;;;;;;;;;5034495;28;20224;-78
2023/10/03 06:10:44;;;;;;;17.80;10.13;;;;;;;;;;5029802;28;21874;-78
2023/10/03 06:13:10;;;;;;;16.63;10.27;;;;;;;;;;5034382;28;20178;-78
2023/10/03 06:15:40;;;;;;;15.57;9.63;;;;;;;;;;5043041;28;20621;-78
2023/10/03 06:18:08;;;;;;;15.90;9.40;;;;;;;;;;5030548;28;20255;-78
2023/10/03 06:20:34;;;;;;;14.90;9.33;;;;;;;;;;5029770;28;20539;-78
2023/10/03 06:23:02;;;;;;;14.40;9.53;;;;;;;;;;5034998;28;20183;-78
2023/10/03 06:25:29;;;;;;;14.80;9.00;;;;;;;;;;5032207;28;20573;-78
2023/10/03 06:27:56;;;;;;;18.43;9.60;;;;;;;;;;5035239;28;20285;-77
2023/10/03 06:30:23;;;;;;;14.90;9.30;;;;;;;;;;5032873;28;20186;-78
2023/10/03 06:32:49;;;;;;;15.13;9.50;;;;;;;;;;5014693;28;20194;-78
2023/10/03 06:35:17;;;;;;;17.83;10.13;;;;;;;;;;5034996;28;20239;-78
2023/10/03 06:37:44;;;;;;;15.93;9.03;;;;;;;;;;5031920;28;20644;-78
2023/10/03 06:40:13;;;;;;;16.33;9.60;;;;;;;;;;5032457;28;20248;-78
2023/10/03 06:42:40;;;;;;;15.90;9.83;;;;;;;;;;5032460;28;20194;-78
2023/10/03 06:45:11;;;;;;;14.43;9.83;;;;;;;;;;5033642;28;20191;-77
2023/10/03 06:47:38;;;;;;;14.70;9.00;;;;;;;;;;5030623;28;20210;-77
2023/10/03 06:50:08;;;;;;;15.30;9.30;;;;;;;;;;5029217;28;20214;-78
2023/10/03 06:52:35;;;;;;;16.53;9.70;;;;;;;;;;5029325;28;20183;-78
2023/10/03 06:55:03;;;;;;;15.97;9.07;;;;;;;;;;5029699;28;20684;-78
2023/10/03 06:57:32;;;;;;;14.40;9.70;;;;;;;;;;5027087;28;20266;-78
2023/10/03 06:59:58;;;;;;;13.77;8.97;;;;;;;;;;5028858;28;20229;-78
2023/10/03 07:02:24;;;;;;;14.87;9.10;;;;;;;;;;5028085;28;20189;-78
2023/10/03 07:04:50;;;;;;;13.27;8.90;;;;;;;;;;5031842;28;20185;-78
2023/10/03 07:07:17;;;;;;;14.03;9.27;;;;;;;;;;5024140;28;20183;-78
2023/10/03 07:09:43;;;;;;;14.57;9.03;;;;;;;;;;5027692;28;20680;-78
2023/10/03 07:12:09;;;;;;;13.40;8.30;;;;;;;;;;5017396;28;20190;-78
2023/10/03 07:14:36;;;;;;;12.13;8.47;;;;;;;;;;5015160;28;20708;-78
2023/10/03 07:17:03;;;;;;;15.00;9.13;;;;;;;;;;5018872;28;20187;-78
2023/10/03 07:19:30;;;;;;;13.37;8.97;;;;;;;;;;5017207;28;20198;-78
2023/10/03 07:21:57;;;;;;;13.17;8.17;;;;;;;;;;5013123;28;20661;-78
2023/10/03 07:24:25;;;;;;;14.03;9.03;;;;;;;;;;5015053;28;20260;-78
2023/10/03 07:26:51;;;;;;;11.47;8.13;;;;;;;;;;5015142;28;20276;-78
2023/10/03 07:29:17;;;;;;;16.07;8.47;;;;;;;;;;5018500;28;20206;-78
2023/10/03 07:31:44;;;;;;;17.60;8.20;;;;;;;;;;5026272;28;20202;-77
2023/10/03 07:34:12;;;;;;;15.53;8.50;;;;;;;;;;5019832;28;20206;-78
2023/10/03 07:36:39;;;;;;;14.30;8.13;;;;;;;;;;5027344;28;20192;-78
2023/10/03 07:39:05;;;;;;;15.17;9.40;;;;;;;;;;5020032;28;20195;-78
2023/10/03 07:41:32;;;;;;;12.17;8.03;;;;;;;;;;5016570;28;20684;-78
2023/10/03 07:43:58;;;;;;;13.37;8.87;;;;;;;;;;5021205;28;20664;-78
2023/10/03 07:46:26;;;;;;;12.37;7.80;;;;;;;;;;5015896;28;20672;-78
2023/10/03 07:48:52;;;;;;;11.17;7.73;;;;;;;;;;5013881;28;20253;-77
2023/10/03 07:51:19;;;;;;;14.07;8.13;;;;;;;;;;5011954;28;20657;-77
2023/10/03 07:53:47;;;;;;;12.07;8.07;;;;;;;;;;5021545;28;20609;-77
2023/10/03 07:56:32;;;;;;;14.30;8.47;;;;;;;;;;5016783;28;20183;-77
2023/10/03 07:59:01;;;;;;;11.17;8.23;;;;;;;;;;5014260;28;20569;-77
2023/10/03 08:01:28;;;;;;;13.53;8.03;;;;;;;;;;5013990;28;20298;-77
2023/10/03 08:03:54;;;;;;;11.97;8.17;;;;;;;;;;5021249;28;20226;-80
2023/10/03 08:06:23;;;;;;;15.73;8.33;;;;;;;;;;5025672;28;20724;-81
2023/10/03 08:08:52;;;;;;;12.43;8.30;;;;;;;;;;5012622;28;20207;-79
2023/10/03 08:11:22;;;;;;;12.57;8.37;;;;;;;;;;5024601;28;20188;-81
2023/10/03 08:13:49;;;;;;;10.80;7.87;;;;;;;;;;5007119;28;20189;-77
2023/10/03 08:16:16;;;;;;;11.80;7.97;;;;;;;;;;4990872;28;20689;-78
2023/10/03 08:18:46;;;;;;;13.07;8.13;;;;;;;;;;5003915;28;20218;-77
2023/10/03 08:21:13;;;;;;;11.83;8.30;;;;;;;;;;4983675;28;20194;-77
2023/10/03 08:23:39;;;;;;;11.37;7.70;;;;;;;;;;5022938;28;20177;-77
2023/10/03 08:26:05;;;;;;;14.63;7.80;;;;;;;;;;5018028;28;20633;-77
2023/10/03 08:28:32;;;;;;;12.43;7.83;;;;;;;;;;5017751;28;20207;-78
2023/10/03 08:31:07;;;;;;;11.43;8.00;;;;;;;;;;5015084;28;20191;-77
2023/10/03 08:33:36;;;;;;;12.27;7.70;;;;;;;;;;5026581;28;20236;-78
2023/10/03 08:36:14;;;;;;;11.13;7.83;;;;;;;;;;5020977;28;20206;-77
2023/10/03 08:38:43;;;;;;;14.03;9.43;;;;;;;;;;5021285;28;20200;-77
2023/10/03 08:41:36;;;;;;;13.13;9.90;;;;;;;;;;5014394;28;20228;-77
2023/10/03 08:44:05;;;;;;;12.53;8.57;;;;;;;;;;5017346;28;20212;-77
2023/10/03 08:46:36;;;;;;;11.90;7.93;;;;;;;;;;5024887;28;20181;-77
2023/10/03 08:49:08;;;;;;;11.77;7.60;;;;;;;;;;5027970;28;20211;-77
2023/10/03 08:51:35;;;;;;;10.90;7.23;;;;;;;;;;5025205;28;20189;-77
2023/10/03 08:54:12;;;;;;;12.40;7.90;;;;;;;;;;5026747;28;20221;-78
2023/10/03 08:56:41;;;;;;;13.63;9.10;;;;;;;;;;5021850;28;20221;-77
2023/10/03 08:59:32;;;;;;;10.80;8.80;;;;;;;;;;5026658;28;20277;-77
2023/10/03 09:02:05;;;;;;;9.53;7.50;;;;;;;;;;5010162;28;20281;-77
2023/10/03 09:04:38;;;;;;;9.97;7.07;;;;;;;;;;5012954;28;20194;-77
2023/10/03 09:07:08;;;;;;;11.83;7.37;;;;;;;;;;5013815;28;20195;-77
2023/10/03 09:09:37;;;;;;;9.00;6.47;;;;;;;;;;5013750;28;20593;-77
2023/10/03 09:12:04;;;;;;;11.77;6.43;;;;;;;;;;4994568;28;20202;-77
2023/10/03 09:14:30;;;;;;;8.63;5.93;;;;;;;;;;5025387;28;20249;-77
2023/10/03 09:16:59;;;;;;;9.57;5.73;;;;;;;;;;5025568;28;20193;-77
2023/10/03 09:19:44;;;;;;;10.23;6.50;;;;;;;;;;5025731;28;20194;-77
2023/10/03 09:22:14;;;;;;;10.90;5.93;;;;;;;;;;5026392;28;20210;-77
2023/10/03 09:24:46;;;;;;;16.37;5.60;;;;;;;;;;5026482;28;20184;-77
2023/10/03 09:27:17;;;;;;;10.40;6.40;;;;;;;;;;5027508;28;20197;-77
2023/10/03 09:29:45;;;;;;;9.37;5.97;;;;;;;;;;5025629;28;20703;-77
2023/10/03 09:32:20;;;;;;;14.17;6.07;;;;;;;;;;5025318;28;20676;-77
2023/10/03 09:35:09;;;;;;;8.50;5.77;;;;;;;;;;4996808;28;20286;-77
2023/10/03 09:37:36;;;;;;;9.87;5.70;;;;;;;;;;4994209;28;20195;-77
2023/10/03 09:40:16;;;;;;;8.33;6.20;;;;;;;;;;4995427;28;20656;-77
2023/10/03 09:42:48;;;;;;;9.63;5.67;;;;;;;;;;4994107;28;20622;-77
2023/10/03 09:45:26;;;;;;;11.23;5.77;;;;;;;;;;5022136;28;20641;-77
2023/10/03 09:47:58;;;;;;;11.00;6.50;;;;;;;;;;5025847;28;20287;-77
2023/10/03 09:50:27;;;;;;;7.77;6.00;;;;;;;;;;5024833;28;20609;-78
2023/10/03 09:52:54;;;;;;;9.03;5.60;;;;;;;;;;5025392;28;20187;-77
2023/10/03 09:55:21;;;;;;;9.47;5.37;;;;;;;;;;5026900;28;20210;-77
2023/10/03 09:57:54;;;;;;;11.50;5.97;;;;;;;;;;5026218;28;20194;-77
2023/10/03 10:01:11;;;;;;;9.57;6.23;;;;;;;;;;5025466;28;20178;-77
2023/10/03 10:03:13;;;;;;;8.67;6.00;;;;;;;;;;5020360;28;20199;-77
2023/10/03 10:05:49;;;;;;;11.07;6.07;;;;;;;;;;5031215;28;20178;-79
2023/10/03 10:08:21;;;;;;;9.37;5.70;;;;;;;;;;5014235;28;20738;-79
2023/10/03 10:11:10;;;;;;;12.80;6.10;;;;;;;;;;5015534;28;20204;-80
2023/10/03 10:13:41;;;;;;;11.43;6.63;;;;;;;;;;4995445;28;20217;-84
2023/10/03 10:16:20;;;;;;;12.00;6.03;;;;;;;;;;5006719;28;20273;-80
2023/10/03 10:18:46;;;;;;;11.03;5.97;;;;;;;;;;5029271;28;20244;-80
2023/10/03 10:21:25;;;;;;;9.60;5.80;;;;;;;;;;5025430;28;20200;-81
2023/10/03 10:24:20;;;;;;;11.73;5.77;;;;;;;;;;5027695;28;20273;-81
2023/10/03 10:26:49;;;;;;;7.13;5.83;;;;;;;;;;5026507;28;20182;-81
2023/10/03 10:29:19;;;;;;;7.50;5.87;;;;;;;;;;5028227;28;20638;-81
2023/10/03 10:31:58;;;;;;;8.70;6.43;;;;;;;;;;5021736;28;20190;-82
2023/10/03 10:34:27;;;;;;;9.60;6.00;;;;;;;;;;5011961;28;20213;-81
2023/10/03 10:36:55;;;;;;;10.07;6.17;;;;;;;;;;5013657;28;20191;-81
2023/10/03 10:39:24;;;;;;;8.20;5.87;;;;;;;;;;5010298;28;20298;-81
2023/10/03 10:42:11;;;;;;;8.73;5.53;;;;;;;;;;5021484;28;20394;-81
2023/10/03 10:44:58;;;;;;;8.33;5.57;;;;;;;;;;5021530;28;20237;-82
2023/10/03 10:47:24;;;;;;;8.07;6.10;;;;;;;;;;5018964;28;20183;-81
2023/10/03 10:49:56;;;;;;;7.83;5.70;;;;;;;;;;5020243;28;20712;-82
2023/10/03 10:52:22;;;;;;;10.80;5.77;;;;;;;;;;5021248;28;20182;-82
2023/10/03 10:54:49;;;;;;;8.40;5.57;;;;;;;;;;5004860;28;20218;-86
2023/10/03 10:57:15;;;;;;;8.83;5.70;;;;;;;;;;5021394;28;20189;-78
2023/10/03 10:59:43;;;;;;;9.10;5.60;;;;;;;;;;5021714;28;20196;-79
2023/10/03 11:02:28;;;;;;;6.67;5.57;;;;;;;;;;5030022;28;20220;-78
2023/10/03 11:04:55;;;;;;;11.37;6.03;;;;;;;;;;5022769;28;20182;-78
2023/10/03 11:07:22;;;;;;;8.20;5.80;;;;;;;;;;5027099;28;20223;-78
2023/10/03 11:09:49;;;;;;;7.57;5.67;;;;;;;;;;5026880;28;20549;-78
2023/10/03 11:12:25;;;;;;;9.33;5.03;;;;;;;;;;5018859;28;20192;-78
2023/10/03 11:14:52;;;;;;;10.57;5.13;;;;;;;;;;5001568;28;20218;-78
2023/10/03 11:17:19;;;;;;;8.90;5.27;;;;;;;;;;5004559;28;20185;-78
2023/10/03 11:19:46;;;;;;;8.73;5.07;;;;;;;;;;5034566;28;20281;-78
2023/10/03 11:22:13;;;;;;;8.90;5.53;;;;;;;;;;5020339;28;20182;-78
2023/10/03 11:24:39;;;;;;;6.80;4.67;;;;;;;;;;5026701;28;20566;-78
2023/10/03 11:27:05;;;;;;;6.40;4.87;;;;;;;;;;5028311;28;20236;-78
2023/10/03 11:29:39;;;;;;;6.30;4.60;;;;;;;;;;5020218;28;20210;-78
2023/10/03 11:32:16;;;;;;;7.27;4.53;;;;;;;;;;5033206;28;20196;-78
2023/10/03 11:34:43;;;;;;;9.37;4.80;;;;;;;;;;5016880;28;20281;-78
2023/10/03 11:37:09;;;;;;;6.27;4.37;;;;;;;;;;5025808;28;20202;-78
2023/10/03 11:39:39;;;;;;;7.33;4.70;;;;;;;;;;5024647;28;20270;-78
2023/10/03 11:42:09;;;;;;;10.47;5.17;;;;;;;;;;5026585;28;20193;-78
2023/10/03 11:44:36;;;;;;;7.73;4.33;;;;;;;;;;5018324;28;20261;-78
2023/10/03 11:47:03;;;;;;;7.10;4.37;;;;;;;;;;5025575;28;20352;-78
2023/10/03 11:49:30;;;;;;;7.33;4.40;;;;;;;;;;5023188;28;20202;-78
2023/10/03 11:51:56;;;;;;;7.03;4.13;;;;;;;;;;5027269;28;20245;-78
2023/10/03 11:54:22;;;;;;;9.17;4.47;;;;;;;;;;5022905;28;20218;-78
2023/10/03 11:56:48;;;;;;;10.03;4.07;;;;;;;;;;5027262;28;20196;-78
2023/10/03 11:59:15;;;;;;;7.50;4.37;;;;;;;;;;5021334;28;20255;-78
2023/10/03 12:01:48;;;;;;;7.20;4.57;;;;;;;;;;5024404;28;20189;-78
2023/10/03 12:04:15;;;;;;;7.60;4.50;;;;;;;;;;5017839;28;20633;-78
2023/10/03 12:06:42;;;;;;;6.77;4.20;;;;;;;;;;5028764;28;20242;-78
2023/10/03 12:09:09;;;;;;;8.10;4.50;;;;;;;;;;5019868;28;20214;-78
2023/10/03 12:11:36;;;;;;;7.27;4.50;;;;;;;;;;5004863;28;20190;-78
2023/10/03 12:14:03;;;;;;;7.07;4.40;;;;;;;;;;5020366;28;20187;-78
2023/10/03 12:16:30;;;;;;;8.53;4.33;;;;;;;;;;5026136;28;20183;-78
2023/10/03 12:18:56;;;;;;;8.60;4.63;;;;;;;;;;5026201;28;20575;-78
2023/10/03 12:21:23;;;;;;;7.30;3.83;;;;;;;;;;5022841;28;20279;-78
2023/10/03 12:23:49;;;;;;;6.33;4.53;;;;;;;;;;5022437;28;20559;-78
2023/10/03 12:26:15;;;;;;;7.77;4.63;;;;;;;;;;5024002;28;20281;-79
2023/10/03 12:28:42;;;;;;;6.50;4.57;;;;;;;;;;5017361;28;20207;-78
2023/10/03 12:31:09;;;;;;;7.50;4.43;;;;;;;;;;5025003;28;20210;-78
2023/10/03 12:33:35;;;;;;;12.43;4.90;;;;;;;;;;5016913;28;20194;-78
2023/10/03 12:36:04;;;;;;;5.87;4.37;;;;;;;;;;5026081;28;20232;-78
2023/10/03 12:38:31;;;;;;;9.93;4.73;;;;;;;;;;5021430;28;20198;-78
2023/10/03 12:40:57;;;;;;;8.57;4.70;;;;;;;;;;5022590;28;20181;-78
2023/10/03 12:43:25;;;;;;;14.03;4.57;;;;;;;;;;5020335;28;20186;-78
2023/10/03 12:45:52;;;;;;;9.27;4.37;;;;;;;;;;5023305;28;20183;-78
2023/10/03 12:48:19;;;;;;;7.90;4.20;;;;;;;;;;5026561;28;20210;-78
2023/10/03 12:50:45;;;;;;;7.77;4.23;;;;;;;;;;5019405;28;20475;-78
2023/10/03 12:53:11;;;;;;;5.90;4.60;;;;;;;;;;5021880;28;20711;-78
2023/10/03 12:55:38;;;;;;;7.10;4.63;;;;;;;;;;5017074;28;20215;-78
2023/10/03 12:58:04;;;;;;;6.93;4.80;;;;;;;;;;5020943;28;20213;-78
2023/10/03 13:00:30;;;;;;;7.30;4.27;;;;;;;;;;5015198;28;20276;-78
2023/10/03 13:02:59;;;;;;;11.43;4.50;;;;;;;;;;5019428;28;20191;-78
2023/10/03 13:05:25;;;;;;;7.73;4.60;;;;;;;;;;5023079;28;20218;-78
2023/10/03 13:07:53;;;;;;;7.50;4.63;;;;;;;;;;5019748;28;20207;-78
2023/10/03 13:10:20;;;;;;;7.43;4.80;;;;;;;;;;5022312;28;20617;-78
2023/10/03 13:12:47;;;;;;;12.87;5.17;;;;;;;;;;5017452;28;20182;-78
2023/10/03 13:15:15;;;;;;;9.20;4.50;;;;;;;;;;5019078;28;20204;-78
2023/10/03 13:17:49;;;;;;;6.67;4.57;;;;;;;;;;5007291;28;20275;-78
2023/10/03 13:20:18;;;;;;;9.50;4.70;;;;;;;;;;5020832;28;20219;-78
2023/10/03 13:22:44;;;;;;;7.70;4.30;;;;;;;;;;5016794;28;20208;-78
2023/10/03 13:25:11;;;;;;;7.87;4.20;;;;;;;;;;5018397;28;20226;-78
2023/10/03 13:27:38;;;;;;;9.03;3.80;;;;;;;;;;5019133;28;20548;-78
2023/10/03 13:30:10;;;;;;;6.33;3.90;;;;;;;;;;5019473;28;20200;-78
2023/10/03 13:32:40;;;;;;;7.20;3.83;;;;;;;;;;5025175;28;20184;-78
2023/10/03 13:35:07;;;;;;;7.43;3.90;;;;;;;;;;5026180;28;20220;-78
2023/10/03 13:37:33;;;;;;;6.10;4.00;;;;;;;;;;5022850;28;20628;-78
2023/10/03 13:40:05;;;;;;;8.13;4.13;;;;;;;;;;5022527;28;20242;-78
2023/10/03 13:42:41;;;;;;;6.17;2.80;;;;;;;;;;5020997;28;20257;-78
2023/10/03 13:45:07;;;;;;;3.30;1.87;;;;;;;;;;5049726;28;20215;-79
2023/10/03 13:47:34;;;;;;;6.90;2.00;;;;;;;;;;5033426;28;20258;-79
2023/10/03 13:50:03;;;;;;;6.03;1.77;;;;;;;;;;5051018;28;20178;-79
2023/10/03 13:52:30;;;;;;;4.53;1.60;;;;;;;;;;5051162;28;20727;-79
2023/10/03 13:55:01;;;;;;;2.07;1.20;;;;;;;;;;5051344;28;20236;-79
2023/10/03 13:57:29;;;;;;;1.60;1.10;;;;;;;;;;5050714;28;20185;-79
2023/10/03 13:59:56;;;;;;;3.33;1.47;;;;;;;;;;5016971;28;20189;-79
2023/10/03 14:02:22;;;;;;;2.27;1.10;;;;;;;;;;5050444;28;20221;-79
2023/10/03 14:04:49;;;;;;;2.40;1.10;;;;;;;;;;5033115;28;20189;-79
2023/10/03 14:07:15;;;;;;;1.33;1.20;;;;;;;;;;5033186;28;20200;-79
2023/10/03 14:09:42;;;;;;;3.70;1.60;;;;;;;;;;5057692;28;20211;-79
2023/10/03 14:12:08;;;;;;;3.27;1.73;;;;;;;;;;5052990;28;20234;-79
2023/10/03 14:14:34;;;;;;;3.30;1.80;;;;;;;;;;5070722;28;20262;-79
2023/10/03 14:17:01;;;;;;;3.93;2.10;;;;;;;;;;5022221;28;20716;-79
2023/10/03 14:19:28;;;;;;;7.07;2.33;;;;;;;;;;5074685;28;20235;-79
2023/10/03 14:21:54;;;;;;;2.53;2.20;;;;;;;;;;5040420;28;20185;-79
2023/10/03 14:24:20;;;;;;;5.00;2.57;;;;;;;;;;5070363;28;20186;-79
2023/10/03 14:26:46;;;;;;;7.67;3.30;;;;;;;;;;5036613;28;20177;-79
2023/10/03 14:29:13;;;;;;;4.30;2.30;;;;;;;;;;5020063;28;20201;-79
2023/10/03 14:31:40;;;;;;;4.40;2.80;;;;;;;;;;5036672;28;20717;-79
2023/10/03 14:34:09;;;;;;;5.17;2.53;;;;;;;;;;5056303;28;20178;-79
2023/10/03 14:36:36;;;;;;;6.27;2.33;;;;;;;;;;5058648;28;20248;-79